Hc Svea Kim — V2BB — position and weather

sailwx.info

Track history (hours):
 
Tides and Currents Weather Stations Pressure Air Temp Water Temp Dewpoint Dewpoint Depression Visibility Wind Speed Wind Dir Waves Ship Positions

Hc Svea Kim

Last reported at 2017-Mar-23 05:32 UTC. Time now 2017-Mar-23 06:19 UTC.
Position N 51°54' E 004°27'.

Length 129 m; draft 7.2 m.

Type: Cargo ship. MMSI: 304182000.

Date/timePositionNaut miles runAvg speedWind from/ knotsBaromVisibWave heightAir tempDewpointWater temp
2017-Mar-23 05:32N 51°54' E 004°27'0 0.0
2017-Mar-23 04:31N 51°54' E 004°27'0 0.0
2017-Mar-23 03:31N 51°54' E 004°27'0 0.0
2017-Mar-23 02:31N 51°54' E 004°27'0 0.0
2017-Mar-23 01:31N 51°54' E 004°27'0 0.0
2017-Mar-23 00:31N 51°54' E 004°27'0 0.0
2017-Mar-22 23:31N 51°54' E 004°27'0 0.0
2017-Mar-22 22:31N 51°54' E 004°27'0 0.0
2017-Mar-22 21:31N 51°54' E 004°27'0 0.0
2017-Mar-22 20:31N 51°54' E 004°27'0 0.0
2017-Mar-22 19:31N 51°54' E 004°27'0 0.0
2017-Mar-22 18:31N 51°54' E 004°27'0 0.0
2017-Mar-22 17:31N 51°54' E 004°27'0 0.2
2017-Mar-22 16:33N 51°54' E 004°27'1 0.8
2017-Mar-22 15:31N 51°54' E 004°25'0 0.0
2017-Mar-22 14:31N 51°54' E 004°25'0 0.0
2017-Mar-22 13:31N 51°54' E 004°25'0 0.0
2017-Mar-22 12:31N 51°54' E 004°25'0 0.0
2017-Mar-22 11:31N 51°54' E 004°25'0 0.0
2017-Mar-22 10:31N 51°54' E 004°25'0 0.0
2017-Mar-22 09:31N 51°54' E 004°25'0 0.0
2017-Mar-22 08:31N 51°54' E 004°25'0 0.0
2017-Mar-22 07:31N 51°54' E 004°25'0 0.0
2017-Mar-22 06:31N 51°54' E 004°25'0 0.0
2017-Mar-22 05:31N 51°54' E 004°25'0 0.0
2017-Mar-22 04:31N 51°54' E 004°25'0 0.0
2017-Mar-22 03:31N 51°54' E 004°25'0 0.0
2017-Mar-22 02:31N 51°54' E 004°25'0 0.0
2017-Mar-22 01:31N 51°54' E 004°25'0 0.0
2017-Mar-22 00:31N 51°54' E 004°25'0 0.0
2017-Mar-21 23:31N 51°54' E 004°25'0 0.0
2017-Mar-21 22:31N 51°54' E 004°25'0 0.0
2017-Mar-21 21:31N 51°54' E 004°25'0 0.0
2017-Mar-21 20:31N 51°54' E 004°25'0 0.0
2017-Mar-21 19:31N 51°54' E 004°25'0 0.0
2017-Mar-21 18:31N 51°54' E 004°25'0 0.0
2017-Mar-21 17:31N 51°54' E 004°25'0 0.0
2017-Mar-21 16:31N 51°54' E 004°25'0 0.0
2017-Mar-21 15:31N 51°54' E 004°25'0 0.0
2017-Mar-21 14:31N 51°54' E 004°25'0 0.0
2017-Mar-21 13:33N 51°54' E 004°25'4 3.8
2017-Mar-21 12:33N 51°54' E 004°19'10 9.7
2017-Mar-21 11:33N 51°59' E 004°06'1110.7
2017-Mar-21 10:34N 52°01' E 003°49'8 7.9
2017-Mar-21 09:33N 52°05' E 003°38'12010.9
2017-Mar-20 22:32N 54°02' E 004°21'  
2017-Mar-17 03:22N 68°20' E 010°21'810.0
2017-Mar-17 02:33N 68°26' E 010°37'1010.2
2017-Mar-17 01:34N 68°33' E 010°57'1010.2
2017-Mar-17 00:33N 68°40' E 011°17'1211.5
2017-Mar-16 23:30N 68°48' E 011°41'1111.5
2017-Mar-16 22:34N 68°56' E 012°03'1110.8
2017-Mar-16 21:33N 69°02' E 012°27'1210.8
2017-Mar-16 20:26N 69°10' E 012°54'1011.3
2017-Mar-16 19:33N 69°17' E 013°14'  
2017-Mar-14 03:05N 69°03' E 033°04'3 6.0
2017-Mar-14 02:34N 69°00' E 033°03'1 0.5
2017-Mar-14 01:34N 68°60' E 033°02'0 0.0
2017-Mar-14 00:33N 68°60' E 033°02'0 0.4
2017-Mar-13 23:33N 68°59' E 033°03'1 1.0
2017-Mar-13 22:32N 68°58' E 033°03'0 0.0
2017-Mar-13 21:32N 68°58' E 033°03'0 0.0
2017-Mar-13 20:32N 68°58' E 033°03'0 0.0
2017-Mar-13 19:32N 68°58' E 033°03'0 0.0
2017-Mar-13 18:32N 68°58' E 033°03'0 0.0
2017-Mar-13 17:32N 68°58' E 033°03'0 0.0
2017-Mar-13 16:32N 68°58' E 033°03'0 0.0
2017-Mar-13 15:32N 68°58' E 033°03'0 0.0
2017-Mar-13 14:29N 68°58' E 033°03'0 0.0
2017-Mar-13 13:32N 68°58' E 033°03'0 0.0
2017-Mar-13 12:32N 68°58' E 033°03'0 0.0
2017-Mar-13 11:32N 68°58' E 033°03'0 0.0
2017-Mar-13 10:29N 68°58' E 033°03'0 0.0
2017-Mar-13 09:32N 68°58' E 033°03'0 0.0
2017-Mar-13 08:32N 68°58' E 033°03'0 0.0
2017-Mar-13 07:32N 68°58' E 033°03'0 0.0
2017-Mar-13 06:32N 68°58' E 033°03'0 0.0
2017-Mar-13 05:32N 68°58' E 033°03'  
Track history (hours):
 
Tides and Currents Weather Stations Pressure Air Temp Water Temp Dewpoint Dewpoint Depression Visibility Wind Speed Wind Dir Waves Ship Positions

Hc Svea Kim

Last reported at 2017-Mar-23 05:32 UTC. Time now 2017-Mar-23 06:19 UTC.
Position N 51°54' E 004°27'.

Length 129 m; draft 7.2 m.

Type: Cargo ship. MMSI: 304182000.

Date/timePositionNaut miles runAvg speedWind from/ knotsBaromVisibWave heightAir tempDewpointWater temp
2017-Mar-23 05:32N 51°54' E 004°27'0 0.0
2017-Mar-23 04:31N 51°54' E 004°27'0 0.0
2017-Mar-23 03:31N 51°54' E 004°27'0 0.0
2017-Mar-23 02:31N 51°54' E 004°27'0 0.0
2017-Mar-23 01:31N 51°54' E 004°27'0 0.0
2017-Mar-23 00:31N 51°54' E 004°27'0 0.0
2017-Mar-22 23:31N 51°54' E 004°27'0 0.0
2017-Mar-22 22:31N 51°54' E 004°27'0 0.0
2017-Mar-22 21:31N 51°54' E 004°27'0 0.0
2017-Mar-22 20:31N 51°54' E 004°27'0 0.0
2017-Mar-22 19:31N 51°54' E 004°27'0 0.0
2017-Mar-22 18:31N 51°54' E 004°27'0 0.0
2017-Mar-22 17:31N 51°54' E 004°27'0 0.2
2017-Mar-22 16:33N 51°54' E 004°27'1 0.8
2017-Mar-22 15:31N 51°54' E 004°25'0 0.0
2017-Mar-22 14:31N 51°54' E 004°25'0 0.0
2017-Mar-22 13:31N 51°54' E 004°25'0 0.0
2017-Mar-22 12:31N 51°54' E 004°25'0 0.0
2017-Mar-22 11:31N 51°54' E 004°25'0 0.0
2017-Mar-22 10:31N 51°54' E 004°25'0 0.0
2017-Mar-22 09:31N 51°54' E 004°25'0 0.0
2017-Mar-22 08:31N 51°54' E 004°25'0 0.0
2017-Mar-22 07:31N 51°54' E 004°25'0 0.0
2017-Mar-22 06:31N 51°54' E 004°25'0 0.0
2017-Mar-22 05:31N 51°54' E 004°25'0 0.0
2017-Mar-22 04:31N 51°54' E 004°25'0 0.0
2017-Mar-22 03:31N 51°54' E 004°25'0 0.0
2017-Mar-22 02:31N 51°54' E 004°25'0 0.0
2017-Mar-22 01:31N 51°54' E 004°25'0 0.0
2017-Mar-22 00:31N 51°54' E 004°25'0 0.0
2017-Mar-21 23:31N 51°54' E 004°25'0 0.0
2017-Mar-21 22:31N 51°54' E 004°25'0 0.0
2017-Mar-21 21:31N 51°54' E 004°25'0 0.0
2017-Mar-21 20:31N 51°54' E 004°25'0 0.0
2017-Mar-21 19:31N 51°54' E 004°25'0 0.0
2017-Mar-21 18:31N 51°54' E 004°25'0 0.0
2017-Mar-21 17:31N 51°54' E 004°25'0 0.0
2017-Mar-21 16:31N 51°54' E 004°25'0 0.0
2017-Mar-21 15:31N 51°54' E 004°25'0 0.0
2017-Mar-21 14:31N 51°54' E 004°25'0 0.0
2017-Mar-21 13:33N 51°54' E 004°25'4 3.8
2017-Mar-21 12:33N 51°54' E 004°19'10 9.7
2017-Mar-21 11:33N 51°59' E 004°06'1110.7
2017-Mar-21 10:34N 52°01' E 003°49'8 7.9
2017-Mar-21 09:33N 52°05' E 003°38'12010.9
2017-Mar-20 22:32N 54°02' E 004°21'  
2017-Mar-17 03:22N 68°20' E 010°21'810.0
2017-Mar-17 02:33N 68°26' E 010°37'1010.2
2017-Mar-17 01:34N 68°33' E 010°57'1010.2
2017-Mar-17 00:33N 68°40' E 011°17'1211.5
2017-Mar-16 23:30N 68°48' E 011°41'1111.5
2017-Mar-16 22:34N 68°56' E 012°03'1110.8
2017-Mar-16 21:33N 69°02' E 012°27'1210.8
2017-Mar-16 20:26N 69°10' E 012°54'1011.3
2017-Mar-16 19:33N 69°17' E 013°14'  
2017-Mar-14 03:05N 69°03' E 033°04'3 6.0
2017-Mar-14 02:34N 69°00' E 033°03'1 0.5
2017-Mar-14 01:34N 68°60' E 033°02'0 0.0
2017-Mar-14 00:33N 68°60' E 033°02'0 0.4
2017-Mar-13 23:33N 68°59' E 033°03'1 1.0
2017-Mar-13 22:32N 68°58' E 033°03'0 0.0
2017-Mar-13 21:32N 68°58' E 033°03'0 0.0
2017-Mar-13 20:32N 68°58' E 033°03'0 0.0
2017-Mar-13 19:32N 68°58' E 033°03'0 0.0
2017-Mar-13 18:32N 68°58' E 033°03'0 0.0
2017-Mar-13 17:32N 68°58' E 033°03'0 0.0
2017-Mar-13 16:32N 68°58' E 033°03'0 0.0
2017-Mar-13 15:32N 68°58' E 033°03'0 0.0
2017-Mar-13 14:29N 68°58' E 033°03'0 0.0
2017-Mar-13 13:32N 68°58' E 033°03'0 0.0
2017-Mar-13 12:32N 68°58' E 033°03'0 0.0
2017-Mar-13 11:32N 68°58' E 033°03'0 0.0
2017-Mar-13 10:29N 68°58' E 033°03'0 0.0
2017-Mar-13 09:32N 68°58' E 033°03'0 0.0
2017-Mar-13 08:32N 68°58' E 033°03'0 0.0
2017-Mar-13 07:32N 68°58' E 033°03'0 0.0
2017-Mar-13 06:32N 68°58' E 033°03'0 0.0
2017-Mar-13 05:32N 68°58' E 033°03'  

Dump ship's entire track history